Time;durP1;ratioP1;P1;durP2;ratioP2;P2;SDS_P1;SDS_P2;PMS_P1;PMS_P2;Temp;Humidity;BMP_temperature;BMP_pressure;BME280_temperature;BME280_humidity;BME280_pressure;Samples;Min_cycle;Max_cycle;Signal;HPM_P1;HPM_P2
2022/01/21 00:01:13;;;;;;;5.80;2.40;;;;;;99808.20;;;;106622;1296;67355;-42
2022/01/21 00:03:41;;;;;;;4.80;2.00;;;;;;99806.91;;;;106609;1297;63469;-43
2022/01/21 00:06:09;;;;;;;4.90;2.10;;;;;;99812.73;;;;106525;1297;63793;-43
2022/01/21 00:08:42;;;;;;;6.10;2.30;;;;;;99817.38;;;;106533;1297;63518;-42
2022/01/21 00:11:11;;;;;;;4.30;1.90;;;;;;99815.66;;;;106439;1299;63429;-43
2022/01/21 00:13:39;;;;;;;4.60;2.30;;;;;;99827.60;;;;106610;1296;65386;-43
2022/01/21 00:16:12;;;;;;;6.10;2.00;;;;;;99827.59;;;;106549;1297;63536;-43
2022/01/21 00:18:45;;;;;;;4.60;2.00;;;;;;99832.95;;;;106621;1296;63386;-43
2022/01/21 00:32:35;;;;;;;3.90;1.70;;;;;;99849.48;;;;106230;1302;63405;-43
2022/01/21 00:35:03;;;;;;;4.30;2.00;;;;;;99855.76;;;;106176;1300;63437;-46
2022/01/21 00:37:30;;;;;;;5.60;2.10;;;;;;99859.16;;;;106539;1297;63434;-43
2022/01/21 00:39:59;;;;;;;6.30;2.10;;;;;;99859.27;;;;106463;1298;66813;-43
2022/01/21 00:45:13;;;;;;;4.70;2.10;;;;;;99858.80;;;;106489;1297;63457;-44
2022/01/21 00:47:44;;;;;;;4.70;1.80;;;;;;99857.39;;;;106565;1296;63498;-44
2022/01/21 00:50:14;;;;;;;4.90;2.10;;;;;;99861.13;;;;106632;1297;63368;-44
2022/01/21 00:52:42;;;;;;;4.50;1.80;;;;;;99856.48;;;;106570;1297;67383;-45
2022/01/21 00:55:10;;;;;;;4.50;1.70;;;;;;99862.25;;;;106628;1296;63340;-43
2022/01/21 00:57:38;;;;;;;4.30;1.80;;;;;;99852.10;;;;106434;1297;63393;-43
2022/01/21 01:00:12;;;;;;;4.10;2.00;;;;;;99853.44;;;;106462;1297;63402;-44
2022/01/21 01:02:41;;;;;;;4.90;1.80;;;;;;99851.82;;;;105706;1296;1216764;-46
2022/01/21 01:05:12;;;;;;;4.80;1.90;;;;;;99847.42;;;;106641;1297;67871;-44
2022/01/21 01:07:42;;;;;;;4.30;1.80;;;;;;99846.36;;;;106535;1296;63435;-43
2022/01/21 01:10:20;;;;;;;4.20;1.70;;;;;;99852.96;;;;106621;1296;63416;-49
2022/01/21 01:20:50;;;;;;;5.10;1.90;;;;;;99853.82;;;;106505;1297;63374;-35
2022/01/21 01:23:38;;;;;;;5.20;2.00;;;;;;99854.42;;;;106611;1297;63413;-41
2022/01/21 01:28:51;;;;;;;4.40;1.80;;;;;;99856.22;;;;106564;1296;63307;-50
2022/01/21 01:31:18;;;;;;;5.10;1.80;;;;;;99854.19;;;;106616;1296;66671;-36
2022/01/21 01:33:45;;;;;;;4.00;1.50;;;;;;99855.44;;;;106550;1296;63512;-37
2022/01/21 01:36:12;;;;;;;5.00;1.90;;;;;;99859.53;;;;106621;1297;63449;-35
2022/01/21 01:41:11;;;;;;;4.30;1.80;;;;;;99849.68;;;;106573;1296;63524;-34
2022/01/21 01:52:00;;;;;;;4.00;1.80;;;;;;99841.46;;;;106541;1296;63451;-33
2022/01/21 01:54:30;;;;;;;4.10;1.50;;;;;;99836.21;;;;106476;1296;63486;-33
2022/01/21 01:57:00;;;;;;;3.70;1.70;;;;;;99841.09;;;;106451;1296;65756;-33
2022/01/21 01:59:28;;;;;;;4.40;1.80;;;;;;99842.86;;;;106462;1297;63748;-32
2022/01/21 02:02:06;;;;;;;3.60;1.60;;;;;;99836.39;;;;106621;1297;63359;-32
2022/01/21 02:04:33;;;;;;;4.60;1.70;;;;;;99838.03;;;;106526;1296;63466;-32
2022/01/21 02:07:00;;;;;;;3.80;1.60;;;;;;99838.13;;;;106566;1296;63354;-41
2022/01/21 02:09:28;;;;;;;3.70;1.60;;;;;;99838.59;;;;106626;1296;66746;-50
2022/01/21 02:11:56;;;;;;;3.40;1.40;;;;;;99836.98;;;;106535;1296;63464;-44
2022/01/21 02:14:29;;;;;;;4.10;1.50;;;;;;99836.58;;;;106566;1296;63460;-43
2022/01/21 02:22:16;;;;;;;4.70;1.70;;;;;;99831.94;;;;106424;1296;68205;-44
2022/01/21 02:27:18;;;;;;;4.60;1.70;;;;;;99822.75;;;;106555;1296;63779;-43
2022/01/21 02:29:51;;;;;;;3.70;1.40;;;;;;99820.90;;;;106557;1296;63486;-44
2022/01/21 02:32:21;;;;;;;3.80;1.50;;;;;;99821.59;;;;106574;1296;63419;-44
2022/01/21 02:34:49;;;;;;;4.20;1.60;;;;;;99820.38;;;;106634;1297;67283;-44
2022/01/21 02:37:21;;;;;;;3.70;1.50;;;;;;99823.83;;;;106609;1297;63431;-43
2022/01/21 02:39:49;;;;;;;3.50;1.40;;;;;;99823.13;;;;106587;1296;63464;-43
2022/01/21 02:42:17;;;;;;;3.50;1.20;;;;;;99833.98;;;;106545;1296;63467;-43
2022/01/21 02:44:44;;;;;;;4.00;1.50;;;;;;99838.49;;;;106475;1296;63418;-45
2022/01/21 02:47:12;;;;;;;4.10;1.30;;;;;;99841.77;;;;106574;1296;66888;-44
2022/01/21 02:49:39;;;;;;;3.60;1.20;;;;;;99835.59;;;;106621;1296;63541;-43
2022/01/21 02:52:07;;;;;;;3.70;1.40;;;;;;99834.95;;;;106454;1298;63534;-43
2022/01/21 02:54:35;;;;;;;3.50;1.30;;;;;;99833.67;;;;106536;1297;63419;-44
2022/01/21 02:57:05;;;;;;;3.70;1.20;;;;;;99835.08;;;;106635;1297;63343;-44
2022/01/21 02:59:33;;;;;;;3.90;1.20;;;;;;99846.63;;;;106641;1296;67018;-42
2022/01/21 03:02:01;;;;;;;3.70;1.20;;;;;;99831.65;;;;106549;1297;63348;-43
2022/01/21 03:06:56;;;;;;;2.90;1.20;;;;;;99844.79;;;;106504;1297;63324;-44
2022/01/21 03:09:23;;;;;;;3.70;1.30;;;;;;99845.45;;;;106494;1297;63537;-44
2022/01/21 03:11:50;;;;;;;3.50;1.20;;;;;;99835.13;;;;106628;1296;67027;-43
2022/01/21 03:14:17;;;;;;;3.50;1.20;;;;;;99839.65;;;;106563;1298;63435;-43
2022/01/21 03:16:48;;;;;;;3.40;1.20;;;;;;99837.17;;;;106545;1297;63468;-43
2022/01/21 03:19:15;;;;;;;3.80;1.40;;;;;;99830.48;;;;106627;1297;63330;-43
2022/01/21 03:21:42;;;;;;;3.60;1.40;;;;;;99826.77;;;;106599;1300;63348;-43
2022/01/21 03:24:09;;;;;;;3.80;1.10;;;;;;99832.67;;;;106636;1297;66038;-44
2022/01/21 03:26:37;;;;;;;3.40;1.10;;;;;;99837.17;;;;106618;1296;63416;-44
2022/01/21 03:29:05;;;;;;;3.00;1.10;;;;;;99828.76;;;;106559;1299;63406;-44
2022/01/21 03:31:33;;;;;;;4.30;1.30;;;;;;99824.27;;;;106458;1297;63516;-44
2022/01/21 03:34:04;;;;;;;4.20;1.40;;;;;;99843.58;;;;106573;1297;63357;-43
2022/01/21 03:36:32;;;;;;;2.90;1.00;;;;;;99848.42;;;;106451;1297;67041;-43
2022/01/21 03:38:59;;;;;;;3.30;1.00;;;;;;99845.13;;;;106581;1297;63530;-43
2022/01/21 03:41:26;;;;;;;2.90;1.00;;;;;;99850.16;;;;106560;1297;63356;-43
2022/01/21 03:43:53;;;;;;;3.30;1.30;;;;;;99852.21;;;;106451;1299;63481;-44
2022/01/21 03:46:21;;;;;;;3.50;1.30;;;;;;99859.60;;;;106566;1297;63519;-44
2022/01/21 03:48:49;;;;;;;4.00;1.20;;;;;;99853.21;;;;106588;1299;67078;-43
2022/01/21 03:51:19;;;;;;;3.70;1.20;;;;;;99858.36;;;;106562;1297;63509;-43
2022/01/21 03:53:47;;;;;;;3.90;1.10;;;;;;99849.79;;;;106633;1296;63380;-43
2022/01/21 03:56:16;;;;;;;3.00;1.00;;;;;;99845.70;;;;106593;1297;63507;-43
2022/01/21 03:58:46;;;;;;;4.00;1.20;;;;;;99839.96;;;;106413;1297;63492;-36
2022/01/21 04:01:18;;;;;;;3.40;1.10;;;;;;99852.06;;;;106563;1298;67869;-35
2022/01/21 04:03:45;;;;;;;2.30;1.00;;;;;;99848.09;;;;106574;1297;63433;-35
2022/01/21 04:06:12;;;;;;;3.70;1.20;;;;;;99851.51;;;;106618;1297;63422;-35
2022/01/21 04:08:40;;;;;;;2.70;1.10;;;;;;99858.98;;;;106539;1297;63387;-35
2022/01/21 04:11:10;;;;;;;3.90;1.40;;;;;;99856.77;;;;106569;1297;63793;-35
2022/01/21 04:13:37;;;;;;;3.30;1.10;;;;;;99868.55;;;;106567;1299;67113;-36
2022/01/21 04:16:07;;;;;;;3.00;1.20;;;;;;99864.09;;;;106561;1297;63540;-33
2022/01/21 04:18:34;;;;;;;2.90;1.00;;;;;;99868.57;;;;106440;1299;63466;-34
2022/01/21 04:21:01;;;;;;;3.10;0.90;;;;;;99866.56;;;;106351;1299;63466;-32
2022/01/21 04:23:31;;;;;;;3.20;1.30;;;;;;99866.59;;;;106478;1297;63386;-33
2022/01/21 04:25:59;;;;;;;4.10;1.10;;;;;;99868.02;;;;106466;1298;67376;-33
2022/01/21 04:28:26;;;;;;;3.60;0.90;;;;;;99864.14;;;;106419;1299;63377;-34
2022/01/21 04:30:58;;;;;;;4.10;1.10;;;;;;99867.92;;;;106586;1298;63375;-33
2022/01/21 04:33:25;;;;;;;3.30;1.00;;;;;;99865.92;;;;106552;1299;63520;-33
2022/01/21 04:35:52;;;;;;;3.20;1.10;;;;;;99881.89;;;;106450;1299;63415;-34
2022/01/21 04:38:22;;;;;;;3.40;1.20;;;;;;99890.44;;;;106426;1299;65505;-34
2022/01/21 04:40:56;;;;;;;3.20;1.00;;;;;;99877.31;;;;106438;1299;63468;-34
2022/01/21 04:48:57;;;;;;;3.20;1.00;;;;;;99889.45;;;;106558;1297;63473;-33
2022/01/21 04:51:29;;;;;;;3.70;1.10;;;;;;99874.75;;;;106561;1297;66998;-47
2022/01/21 04:53:57;;;;;;;3.50;1.20;;;;;;99887.98;;;;106449;1299;63509;-34
2022/01/21 04:56:24;;;;;;;2.70;1.00;;;;;;99882.20;;;;106569;1297;63372;-33
2022/01/21 04:58:53;;;;;;;3.70;1.00;;;;;;99886.77;;;;106447;1298;63470;-33
2022/01/21 05:01:20;;;;;;;3.40;1.20;;;;;;99889.39;;;;106576;1297;63339;-34
2022/01/21 05:03:50;;;;;;;2.20;0.90;;;;;;99892.52;;;;106462;1299;66935;-35
2022/01/21 05:06:18;;;;;;;2.70;0.90;;;;;;99887.31;;;;106434;1299;63534;-34
2022/01/21 05:08:53;;;;;;;2.70;1.00;;;;;;99893.40;;;;106480;1299;63419;-33
2022/01/21 05:11:21;;;;;;;2.60;0.90;;;;;;99898.29;;;;106410;1299;63450;-34
2022/01/21 05:13:56;;;;;;;3.20;1.10;;;;;;99907.73;;;;106446;1299;63412;-33
2022/01/21 05:19:00;;;;;;;2.90;0.90;;;;;;99896.05;;;;106470;1299;63417;-33
2022/01/21 05:21:28;;;;;;;3.60;1.00;;;;;;99904.09;;;;106428;1299;63476;-34
2022/01/21 05:23:58;;;;;;;3.30;1.20;;;;;;99899.73;;;;106469;1299;63518;-33
2022/01/21 05:26:25;;;;;;;3.40;1.50;;;;;;99899.94;;;;106477;1299;63369;-33
2022/01/21 05:28:52;;;;;;;2.00;0.90;;;;;;99898.84;;;;106576;1297;68134;-34
2022/01/21 05:31:22;;;;;;;3.50;1.10;;;;;;99900.04;;;;106466;1299;63471;-33
2022/01/21 05:33:49;;;;;;;4.70;1.30;;;;;;99903.82;;;;106457;1299;63587;-34
2022/01/21 05:36:18;;;;;;;3.30;1.10;;;;;;99908.09;;;;106444;1299;63275;-34
2022/01/21 05:38:45;;;;;;;3.80;1.20;;;;;;99902.98;;;;106577;1296;63430;-33
2022/01/21 05:41:13;;;;;;;4.10;1.20;;;;;;99908.20;;;;106565;1296;66088;-33
2022/01/21 05:43:46;;;;;;;2.90;1.10;;;;;;99906.64;;;;106446;1299;63347;-33
2022/01/21 05:49:02;;;;;;;4.00;1.30;;;;;;99914.89;;;;106419;1299;63465;-34
2022/01/21 05:51:30;;;;;;;3.30;1.10;;;;;;99916.52;;;;106504;1299;63342;-34
2022/01/21 05:53:57;;;;;;;4.30;1.40;;;;;;99913.23;;;;106564;1296;67339;-33
2022/01/21 05:56:26;;;;;;;4.70;1.50;;;;;;99916.30;;;;106561;1297;63495;-35
2022/01/21 05:58:52;;;;;;;3.70;1.40;;;;;;99917.91;;;;106452;1299;63520;-34
2022/01/21 06:01:20;;;;;;;4.20;1.40;;;;;;99920.48;;;;106419;1299;63452;-39
2022/01/21 06:03:49;;;;;;;3.50;1.20;;;;;;99923.54;;;;106559;1297;63409;-36
2022/01/21 06:06:17;;;;;;;3.50;1.30;;;;;;99934.11;;;;106424;1299;65633;-34
2022/01/21 06:08:44;;;;;;;4.30;1.70;;;;;;99927.08;;;;106466;1299;63536;-34
2022/01/21 06:11:11;;;;;;;3.20;1.30;;;;;;99932.30;;;;106456;1299;63358;-34
2022/01/21 06:13:38;;;;;;;4.80;1.80;;;;;;99935.11;;;;106559;1297;63464;-34
2022/01/21 06:16:06;;;;;;;4.60;1.40;;;;;;99931.88;;;;106604;1297;63414;-33
2022/01/21 06:18:33;;;;;;;4.90;1.40;;;;;;99934.61;;;;106429;1299;68030;-35
2022/01/21 06:21:03;;;;;;;3.70;1.50;;;;;;99941.29;;;;106484;1298;63552;-33
2022/01/21 06:23:30;;;;;;;4.60;1.60;;;;;;99937.85;;;;106415;1299;63484;-34
2022/01/21 06:25:58;;;;;;;4.20;1.50;;;;;;99944.17;;;;106456;1299;63372;-35
2022/01/21 06:28:25;;;;;;;4.00;1.60;;;;;;99949.09;;;;106471;1298;63361;-36
2022/01/21 06:30:52;;;;;;;3.00;1.20;;;;;;99946.60;;;;106574;1297;66886;-40
2022/01/21 06:33:22;;;;;;;3.20;1.20;;;;;;99937.04;;;;106470;1298;63364;-33
2022/01/21 06:35:51;;;;;;;3.30;1.20;;;;;;99952.56;;;;106460;1299;63431;-34
2022/01/21 06:38:21;;;;;;;3.70;1.30;;;;;;99965.02;;;;106414;1299;63526;-34
2022/01/21 06:40:50;;;;;;;3.80;1.40;;;;;;99967.23;;;;106483;1297;63458;-35
2022/01/21 06:43:17;;;;;;;4.60;1.60;;;;;;99969.57;;;;106466;1297;67237;-36
2022/01/21 06:45:48;;;;;;;3.00;1.10;;;;;;99968.66;;;;106553;1297;63436;-35
2022/01/21 06:48:15;;;;;;;3.80;1.50;;;;;;99967.69;;;;106449;1299;63357;-34
2022/01/21 06:50:45;;;;;;;4.30;1.40;;;;;;99969.75;;;;106493;1298;63359;-34
2022/01/21 06:53:12;;;;;;;3.80;1.30;;;;;;99969.60;;;;106486;1299;63316;-34
2022/01/21 06:55:40;;;;;;;4.80;1.60;;;;;;99977.61;;;;106490;1299;65807;-35
2022/01/21 06:58:08;;;;;;;5.50;1.60;;;;;;99973.67;;;;106474;1297;63422;-35
2022/01/21 07:00:35;;;;;;;4.00;1.50;;;;;;99983.39;;;;106590;1297;63354;-39
2022/01/21 07:03:03;;;;;;;4.30;1.40;;;;;;99978.30;;;;106552;1297;63422;-34
2022/01/21 07:05:31;;;;;;;4.00;1.70;;;;;;99978.23;;;;106596;1297;63384;-34
2022/01/21 07:07:59;;;;;;;4.20;1.40;;;;;;99990.89;;;;106428;1299;65501;-34
2022/01/21 07:10:27;;;;;;;4.10;1.80;;;;;;99992.65;;;;106573;1297;63536;-34
2022/01/21 07:12:58;;;;;;;4.10;1.20;;;;;;99997.61;;;;106545;1296;63448;-33
2022/01/21 07:15:25;;;;;;;3.50;1.30;;;;;;99998.20;;;;106575;1297;63438;-34
2022/01/21 07:17:53;;;;;;;4.20;1.60;;;;;;100004.02;;;;106405;1299;63391;-35
2022/01/21 07:20:21;;;;;;;4.50;1.60;;;;;;100015.29;;;;106474;1299;67000;-43
2022/01/21 07:22:49;;;;;;;4.80;1.50;;;;;;100007.66;;;;106586;1296;63534;-32
2022/01/21 07:25:17;;;;;;;4.10;1.40;;;;;;100009.58;;;;106444;1296;63493;-43
2022/01/21 07:27:45;;;;;;;6.70;1.70;;;;;;100008.58;;;;106451;1297;63486;-41
2022/01/21 07:30:14;;;;;;;4.50;2.20;;;;;;100004.37;;;;106631;1296;63425;-43
2022/01/21 07:32:43;;;;;;;4.00;1.50;;;;;;100006.38;;;;106512;1297;67382;-43
2022/01/21 07:35:12;;;;;;;5.10;1.70;;;;;;100005.96;;;;106432;1297;63551;-42
2022/01/21 07:37:39;;;;;;;4.30;1.60;;;;;;100007.48;;;;106529;1297;63461;-43
2022/01/21 07:40:08;;;;;;;4.00;1.60;;;;;;100005.21;;;;106464;1297;63511;-43
2022/01/21 07:42:35;;;;;;;5.20;1.90;;;;;;100009.14;;;;106616;1297;63333;-42
2022/01/21 07:45:03;;;;;;;4.40;1.50;;;;;;100011.50;;;;106577;1297;65919;-43
2022/01/21 07:47:31;;;;;;;5.20;1.90;;;;;;100011.58;;;;106603;1297;63520;-43
2022/01/21 07:49:58;;;;;;;4.40;1.60;;;;;;100011.65;;;;106468;1300;63387;-44
2022/01/21 07:52:25;;;;;;;3.40;1.50;;;;;;100015.20;;;;106563;1297;63361;-43
2022/01/21 07:54:52;;;;;;;5.30;1.80;;;;;;100021.37;;;;106513;1297;63377;-43
2022/01/21 07:57:23;;;;;;;4.50;1.60;;;;;;100020.74;;;;106558;1297;66681;-43
2022/01/21 07:59:51;;;;;;;5.30;1.70;;;;;;100019.55;;;;106795;1293;63828;-41
2022/01/21 08:02:24;;;;;;;4.40;1.50;;;;;;100022.04;;;;107018;1293;63399;-40
2022/01/21 08:04:55;;;;;;;5.60;1.80;;;;;;100022.27;;;;106785;1293;63431;-42
2022/01/21 08:07:23;;;;;;;4.20;1.60;;;;;;100027.75;;;;106779;1294;63802;-35
2022/01/21 08:09:53;;;;;;;4.10;1.40;;;;;;100025.05;;;;106903;1293;66758;-32
2022/01/21 08:12:20;;;;;;;4.60;1.70;;;;;;100023.41;;;;107032;1293;63493;-33
2022/01/21 08:14:48;;;;;;;4.50;2.10;;;;;;100025.94;;;;106970;1293;63405;-37
2022/01/21 08:17:15;;;;;;;4.50;1.70;;;;;;100021.17;;;;106996;1293;63467;-33
2022/01/21 08:19:42;;;;;;;4.10;1.70;;;;;;100024.92;;;;106847;1294;63441;-35
2022/01/21 08:22:10;;;;;;;5.10;2.00;;;;;;100024.98;;;;106957;1293;65557;-32
2022/01/21 08:24:38;;;;;;;6.50;1.60;;;;;;100030.13;;;;106723;1293;63495;-43
2022/01/21 08:27:05;;;;;;;4.60;1.70;;;;;;100030.14;;;;106749;1294;63426;-37
2022/01/21 08:29:36;;;;;;;4.50;1.70;;;;;;100030.48;;;;106909;1293;63455;-33
2022/01/21 08:32:04;;;;;;;7.60;1.80;;;;;;100035.19;;;;106936;1293;63412;-34
2022/01/21 08:34:34;;;;;;;4.10;1.50;;;;;;100037.61;;;;106826;1293;66605;-35
2022/01/21 08:37:03;;;;;;;4.70;1.60;;;;;;100037.30;;;;106896;1293;63413;-43
2022/01/21 08:39:31;;;;;;;4.40;1.70;;;;;;100040.31;;;;106697;1294;63487;-36
2022/01/21 08:42:00;;;;;;;5.50;1.70;;;;;;100046.01;;;;106616;1293;63388;-33
2022/01/21 08:44:27;;;;;;;5.80;1.60;;;;;;100061.81;;;;106681;1293;63375;-32
2022/01/21 08:46:54;;;;;;;4.90;2.10;;;;;;100061.71;;;;106917;1292;67114;-38
2022/01/21 08:49:22;;;;;;;5.10;1.50;;;;;;100064.46;;;;106880;1293;63474;-46
2022/01/21 08:51:51;;;;;;;3.70;1.50;;;;;;100066.64;;;;106690;1294;63320;-42
2022/01/21 08:54:19;;;;;;;4.60;1.70;;;;;;100070.17;;;;106776;1293;63480;-44
2022/01/21 08:56:49;;;;;;;6.00;1.70;;;;;;100072.86;;;;106705;1293;63404;-44
2022/01/21 08:59:18;;;;;;;3.70;1.60;;;;;;100072.39;;;;106631;1294;67407;-34
2022/01/21 09:01:48;;;;;;;4.30;1.50;;;;;;100085.85;;;;106696;1293;63537;-36
2022/01/21 09:04:18;;;;;;;4.30;1.70;;;;;;100081.72;;;;106434;1294;271837;-34
2022/01/21 09:06:46;;;;;;;5.10;1.90;;;;;;100087.83;;;;106871;1293;63445;-33
2022/01/21 09:09:14;;;;;;;5.60;1.90;;;;;;100089.73;;;;106909;1293;63361;-34
2022/01/21 09:11:41;;;;;;;3.00;1.40;;;;;;100085.99;;;;106940;1294;65511;-34
2022/01/21 09:14:09;;;;;;;4.50;2.00;;;;;;100090.89;;;;106341;1296;91338;-34
2022/01/21 09:16:37;;;;;;;3.80;1.50;;;;;;100090.83;;;;106703;1296;63473;-33
2022/01/21 09:19:05;;;;;;;4.70;1.60;;;;;;100096.35;;;;106578;1296;63416;-34
2022/01/21 09:21:37;;;;;;;4.40;1.90;;;;;;100091.94;;;;106585;1297;63399;-35
2022/01/21 09:24:05;;;;;;;5.10;1.80;;;;;;100091.34;;;;106708;1297;65364;-34
2022/01/21 09:26:33;;;;;;;4.60;1.60;;;;;;100097.21;;;;106719;1296;63552;-34
2022/01/21 09:29:03;;;;;;;4.50;1.70;;;;;;100097.33;;;;106703;1297;63402;-34
2022/01/21 09:31:31;;;;;;;5.20;2.00;;;;;;100095.17;;;;106806;1293;63369;-34
2022/01/21 09:33:58;;;;;;;3.60;1.60;;;;;;100092.36;;;;106840;1294;63502;-34
2022/01/21 09:36:25;;;;;;;5.00;1.90;;;;;;100096.84;;;;106849;1293;65770;-44
2022/01/21 09:38:53;;;;;;;5.00;1.80;;;;;;100103.30;;;;106713;1296;63466;-41
2022/01/21 09:41:21;;;;;;;6.00;2.00;;;;;;100094.55;;;;106664;1294;63399;-41
2022/01/21 09:43:50;;;;;;;4.70;1.80;;;;;;100096.70;;;;106472;1297;63477;-40
2022/01/21 09:46:20;;;;;;;4.50;1.50;;;;;;100101.70;;;;106852;1292;63541;-41
2022/01/21 09:48:54;;;;;;;4.30;1.90;;;;;;100101.04;;;;106495;1297;66824;-43
2022/01/21 09:51:21;;;;;;;4.30;1.60;;;;;;100088.81;;;;106663;1294;63482;-43
2022/01/21 09:53:49;;;;;;;4.20;1.70;;;;;;100095.50;;;;106643;1294;63428;-43
2022/01/21 09:56:17;;;;;;;5.00;1.80;;;;;;100093.56;;;;106829;1294;63469;-42
2022/01/21 09:58:46;;;;;;;4.30;1.80;;;;;;100094.42;;;;106730;1294;63603;-42
2022/01/21 10:01:18;;;;;;;5.30;1.80;;;;;;100094.50;;;;106677;1294;67451;-36
2022/01/21 10:03:45;;;;;;;5.80;1.80;;;;;;100086.66;;;;106657;1294;63390;-41
2022/01/21 10:06:13;;;;;;;4.70;1.60;;;;;;100074.54;;;;106820;1293;63634;-41
2022/01/21 10:08:41;;;;;;;6.70;2.30;;;;;;100074.73;;;;106833;1293;63461;-43
2022/01/21 10:11:09;;;;;;;5.20;1.70;;;;;;100069.98;;;;106656;1294;63382;-43
2022/01/21 10:13:39;;;;;;;4.60;1.60;;;;;;100068.66;;;;106676;1294;66767;-43
2022/01/21 10:16:09;;;;;;;4.60;1.70;;;;;;100066.69;;;;106668;1293;63607;-42
2022/01/21 10:18:37;;;;;;;5.00;1.90;;;;;;100076.50;;;;106838;1293;63373;-41
2022/01/21 10:21:13;;;;;;;5.30;1.80;;;;;;100081.80;;;;106622;1296;63403;-43
2022/01/21 10:23:43;;;;;;;4.60;1.90;;;;;;100073.91;;;;106873;1293;63437;-43
2022/01/21 10:26:13;;;;;;;4.50;1.60;;;;;;100064.14;;;;106653;1297;66843;-41
2022/01/21 10:28:44;;;;;;;4.60;1.50;;;;;;100062.50;;;;106823;1294;63520;-43
2022/01/21 10:31:18;;;;;;;3.90;1.60;;;;;;100065.66;;;;106832;1293;63473;-43
2022/01/21 10:33:52;;;;;;;4.40;1.70;;;;;;100062.19;;;;106672;1294;63422;-42
2022/01/21 10:36:30;;;;;;;3.90;1.50;;;;;;100061.59;;;;106857;1294;63501;-41
2022/01/21 10:39:17;;;;;;;4.20;1.70;;;;;;100053.75;;;;106574;1293;67986;-42
2022/01/21 10:41:47;;;;;;;4.30;1.60;;;;;;100054.70;;;;106628;1294;63448;-41
2022/01/21 10:44:20;;;;;;;4.30;1.60;;;;;;100056.48;;;;106498;1294;63492;-41
2022/01/21 10:47:10;;;;;;;5.80;1.20;;;;;;100055.05;;;;106474;1294;64463;-41
2022/01/21 10:49:42;;;;;;;4.60;1.60;;;;;;100056.31;;;;106528;1293;63440;-42
2022/01/21 10:52:15;;;;;;;3.90;1.40;;;;;;100061.15;;;;106671;1294;68537;-43
2022/01/21 10:54:45;;;;;;;4.70;1.60;;;;;;100059.61;;;;106182;1297;63631;-40
2022/01/21 10:57:18;;;;;;;4.10;1.60;;;;;;100057.52;;;;106558;1294;63425;-42
2022/01/21 11:00:10;;;;;;;4.30;1.60;;;;;;100056.73;;;;106534;1293;63550;-42
2022/01/21 11:02:45;;;;;;;4.80;1.80;;;;;;100044.63;;;;106703;1294;63511;-40
2022/01/21 11:05:26;;;;;;;4.20;1.90;;;;;;100050.02;;;;106541;1294;66844;-40
2022/01/21 11:08:09;;;;;;;4.80;2.00;;;;;;100056.55;;;;106826;1293;63495;-40
2022/01/21 11:10:50;;;;;;;4.40;1.60;;;;;;100064.64;;;;106531;1294;63506;-42
2022/01/21 11:13:18;;;;;;;5.40;1.80;;;;;;100069.48;;;;106745;1293;63334;-42
2022/01/21 11:15:51;;;;;;;5.20;1.70;;;;;;100074.34;;;;106883;1294;63330;-42
2022/01/21 11:18:21;;;;;;;5.50;1.90;;;;;;100071.13;;;;106868;1293;66759;-41
2022/01/21 11:20:59;;;;;;;4.80;1.90;;;;;;100068.94;;;;106479;1294;63647;-42
2022/01/21 11:23:28;;;;;;;5.00;1.50;;;;;;100072.29;;;;106567;1294;63413;-42
2022/01/21 11:26:00;;;;;;;4.60;1.60;;;;;;100068.71;;;;106486;1293;63442;-42
2022/01/21 11:28:50;;;;;;;4.70;1.70;;;;;;100072.77;;;;106495;1297;63494;-42
2022/01/21 11:31:27;;;;;;;5.00;1.80;;;;;;100073.86;;;;106579;1297;68656;-42
2022/01/21 11:33:55;;;;;;;5.30;1.70;;;;;;100075.36;;;;106666;1296;63405;-43
2022/01/21 11:36:23;;;;;;;4.80;1.70;;;;;;100071.48;;;;106502;1296;63546;-43
2022/01/21 11:38:55;;;;;;;4.80;1.50;;;;;;100076.23;;;;106598;1295;63425;-42
2022/01/21 11:41:28;;;;;;;4.10;1.70;;;;;;100077.52;;;;106493;1297;63801;-42
2022/01/21 11:44:01;;;;;;;3.50;1.50;;;;;;100073.02;;;;106533;1297;67278;-43
2022/01/21 11:49:17;;;;;;;5.50;1.70;;;;;;100068.40;;;;106532;1295;63367;-43
2022/01/21 11:51:45;;;;;;;4.80;1.60;;;;;;100067.52;;;;106511;1296;63413;-44
2022/01/21 11:54:17;;;;;;;5.60;2.30;;;;;;100073.65;;;;106726;1296;63334;-44
2022/01/21 11:57:05;;;;;;;4.90;1.80;;;;;;100081.45;;;;106595;1297;66700;-43
2022/01/21 11:59:50;;;;;;;5.50;2.00;;;;;;100082.21;;;;106543;1297;63366;-44
2022/01/21 12:02:28;;;;;;;4.80;2.00;;;;;;100082.43;;;;106754;1296;63479;-43
2022/01/21 12:05:06;;;;;;;5.10;2.00;;;;;;100087.39;;;;106720;1297;63395;-43
2022/01/21 12:07:37;;;;;;;4.00;1.60;;;;;;100081.20;;;;106735;1296;63423;-43
2022/01/21 12:10:24;;;;;;;4.50;2.00;;;;;;100090.48;;;;106691;1297;68004;-43
2022/01/21 12:13:26;;;;;;;4.70;1.70;;;;;;100098.40;;;;106704;1296;63382;-43
2022/01/21 12:16:06;;;;;;;4.90;1.80;;;;;;100087.71;;;;106689;1297;63467;-42
2022/01/21 12:21:34;;;;;;;4.40;1.80;;;;;;100086.44;;;;106591;1297;63403;-42
2022/01/21 12:24:03;;;;;;;4.90;1.70;;;;;;100083.95;;;;106595;1297;68095;-43
2022/01/21 12:26:32;;;;;;;6.50;2.20;;;;;;100084.83;;;;106702;1295;63372;-41
2022/01/21 12:28:59;;;;;;;5.90;1.70;;;;;;100087.68;;;;106784;1294;63366;-43
2022/01/21 12:34:12;;;;;;;4.50;1.50;;;;;;100088.45;;;;106850;1293;63456;-44
2022/01/21 12:36:48;;;;;;;5.20;1.90;;;;;;100089.05;;;;106574;1294;68312;-39
2022/01/21 12:39:45;;;;;;;6.20;2.10;;;;;;100092.50;;;;106837;1294;63431;-43
2022/01/21 12:42:24;;;;;;;5.70;2.00;;;;;;100095.15;;;;106838;1294;63567;-45
2022/01/21 12:44:58;;;;;;;5.40;1.90;;;;;;100088.41;;;;106825;1294;63558;-40
2022/01/21 12:47:46;;;;;;;5.90;2.20;;;;;;100086.15;;;;106653;1294;63524;-46
2022/01/21 12:53:14;;;;;;;5.80;2.10;;;;;;100075.77;;;;106863;1293;63367;-43
2022/01/21 12:56:03;;;;;;;4.80;2.00;;;;;;100081.48;;;;106877;1294;63425;-44
2022/01/21 12:58:41;;;;;;;5.40;1.90;;;;;;100085.13;;;;106627;1297;63835;-41
2022/01/21 13:01:11;;;;;;;5.40;2.00;;;;;;100086.50;;;;106850;1293;63550;-43
2022/01/21 13:04:03;;;;;;;6.30;2.70;;;;;;100090.84;;;;106683;1294;68322;-43
2022/01/21 13:06:38;;;;;;;5.20;2.00;;;;;;100093.27;;;;106758;1294;63495;-46
2022/01/21 13:09:10;;;;;;;6.20;2.10;;;;;;100093.76;;;;106831;1293;63562;-43
2022/01/21 13:11:42;;;;;;;4.60;1.70;;;;;;100100.09;;;;106639;1294;63396;-40
2022/01/21 13:14:24;;;;;;;5.70;1.90;;;;;;100105.19;;;;106680;1293;63495;-43
2022/01/21 13:17:15;;;;;;;4.80;1.60;;;;;;100110.77;;;;106633;1294;67971;-37
2022/01/21 13:19:53;;;;;;;5.70;2.20;;;;;;100116.30;;;;106829;1293;63467;-35
2022/01/21 13:22:31;;;;;;;5.20;1.90;;;;;;100114.17;;;;106660;1292;63784;-42
2022/01/21 13:25:09;;;;;;;5.20;2.00;;;;;;100114.36;;;;106861;1294;63533;-43
2022/01/21 13:27:55;;;;;;;5.40;1.80;;;;;;100115.83;;;;106876;1293;63452;-44
2022/01/21 13:30:25;;;;;;;5.10;1.60;;;;;;100109.39;;;;106591;1294;68037;-43
2022/01/21 13:33:18;;;;;;;4.90;1.80;;;;;;100109.25;;;;106861;1293;63434;-41
2022/01/21 13:35:47;;;;;;;4.90;1.90;;;;;;100110.65;;;;106840;1294;63566;-43
2022/01/21 13:38:20;;;;;;;4.90;2.20;;;;;;100118.66;;;;106733;1293;63429;-42
2022/01/21 13:40:52;;;;;;;5.30;1.70;;;;;;100121.63;;;;106572;1295;63783;-43
2022/01/21 13:43:25;;;;;;;4.90;2.10;;;;;;100120.87;;;;106825;1294;66603;-43
2022/01/21 13:46:02;;;;;;;5.80;2.10;;;;;;100117.02;;;;106665;1293;63465;-42
2022/01/21 13:48:32;;;;;;;4.90;2.10;;;;;;100113.55;;;;106852;1293;63405;-41
2022/01/21 13:51:02;;;;;;;4.70;1.80;;;;;;100114.34;;;;106821;1293;63461;-45
2022/01/21 13:53:29;;;;;;;5.20;1.80;;;;;;100113.61;;;;106862;1293;63535;-42
2022/01/21 13:56:08;;;;;;;4.50;1.80;;;;;;100116.98;;;;106867;1293;65868;-41
2022/01/21 13:58:37;;;;;;;4.70;1.80;;;;;;100123.80;;;;106844;1294;63498;-43
2022/01/21 14:01:10;;;;;;;5.00;1.70;;;;;;100125.45;;;;106704;1296;63462;-43
2022/01/21 14:03:41;;;;;;;4.70;1.90;;;;;;100125.18;;;;106665;1296;63474;-43
2022/01/21 14:06:19;;;;;;;4.90;1.90;;;;;;100126.09;;;;106680;1294;63512;-42
2022/01/21 14:08:46;;;;;;;5.20;1.90;;;;;;100127.06;;;;106855;1294;68155;-43
2022/01/21 14:11:30;;;;;;;5.30;1.90;;;;;;100136.64;;;;106657;1294;63340;-42
2022/01/21 14:14:08;;;;;;;;;;;;;;100130.67;;;;106874;1293;63469;-41
2022/01/21 14:16:46;;;;;;;5.60;2.10;;;;;;100134.38;;;;106844;1294;63825;-41
2022/01/21 14:19:20;;;;;;;6.80;2.60;;;;;;100132.41;;;;106866;1294;63356;-40